KSQL/SQL METAR and TAF weather

Enter ICAO airport designator
Station Type Date Time Source
KSQL METAR 2020/11/27 14:35 UTC NOAA

KSQL 271435Z AUTO 00000KT 10SM CLR 05/M03 A3023 RMK AO2


Station Type Date Time Source
KSQL Decoded METAR 2020/11/27 14:35 UTC NOAA

San Carlos Airport, CA, United States (KSQL) 37-31N 122-15W
Nov 27, 2020 - 09:35 AM EST / 2020.11.27 1435 UTC
Wind: Calm:0
Visibility: 10 mile(s):0
Sky conditions: clear
Temperature: 41 F (5 C)
Dew Point: 26 F (-3 C)
Relative Humidity: 56%
Pressure (altimeter): 30.23 in. Hg (1023 hPa)
ob: KSQL 271435Z AUTO 00000KT 10SM CLR 05/M03 A3023 RMK AO2
cycle: 14

Station Type Date Time Source
KSQL TAF UTC NOAA

Error!

Example: see airport list